Date,TemperatureHighF,TemperatureAvgF,TemperatureLowF,DewpointHighF,DewpointAvgF,DewpointLowF,HumidityHigh,HumidityAvg,HumidityLow,PressureMaxIn,PressureMinIn,WindSpeedMaxMPH,WindSpeedAvgMPH,GustSpeedMaxMPH,PrecipitationSumIn
2013-3-11,76.7,72.1,70.0,69.0,65.3,64.0,82,79,73,30.07,29.98,5,1,7,0.01
2013-3-12,74.6,70.4,68.0,68.0,63.5,61.0,91,79,72,30.09,29.98,7,1,11,0.05
2013-3-13,77.1,70.9,66.6,65.0,62.6,61.0,83,75,64,30.11,30.01,5,1,9,0.01
2013-3-14,75.1,70.9,67.6,68.0,65.0,62.0,89,82,72,30.09,29.97,4,1,8,0.01
2013-3-15,79.2,71.4,65.8,66.0,61.9,59.0,87,72,53,29.99,29.89,8,1,14,0.00
2013-3-16,74.7,70.1,66.4,63.0,59.2,57.0,87,69,59,30.02,29.91,13,3,19,0.00
2013-3-17,76.1,68.7,63.3,63.0,59.7,57.0,94,74,54,30.05,29.94,9,2,12,0.19
2013-3-18,76.2,69.0,64.0,64.0,61.0,59.0,85,76,63,30.05,29.94,7,1,8,0.00
2013-3-19,77.6,71.2,66.3,67.0,63.1,60.0,84,76,62,30.03,29.93,12,2,16,0.00
2013-3-20,80.6,73.4,66.3,71.0,65.9,62.0,89,78,56,30.06,29.95,10,2,14,0.00
2013-3-21,79.8,75.1,69.6,73.0,68.0,64.0,91,79,62,30.06,29.95,10,2,13,0.00
2013-3-22,81.4,74.5,68.5,71.0,68.2,65.0,96,81,62,30.02,29.92,9,2,14,0.14
2013-3-23,73.4,69.9,67.2,70.0,67.1,66.0,97,91,82,30.05,29.95,14,2,14,0.28
2013-3-24,71.2,69.9,68.5,69.0,68.0,67.0,97,93,87,30.07,29.95,10,3,14,0.70
2013-3-25,79.3,73.1,69.8,73.0,69.9,68.0,95,89,80,30.04,29.95,4,-924,6,0.00
2013-3-26,80.0,74.4,70.9,72.0,69.5,68.0,91,84,74,30.06,29.96,5,-453,8,0.00
2013-3-27,76.9,72.2,70.0,71.0,68.4,66.0,91,88,80,30.06,29.94,11,3,17,0.00
2013-3-28,78.4,73.0,69.8,70.0,67.7,66.0,91,83,74,30.08,29.98,9,4,14,0.00
2013-3-29,76.2,73.0,71.3,69.0,66.2,64.0,88,79,73,30.07,30.01,9,4,13,0.00
2013-3-30,77.3,72.5,69.8,70.0,65.9,61.0,86,80,72,30.06,29.98,15,4,18,0.00
2013-3-31,75.3,70.0,66.3,62.0,56.4,52.0,77,63,53,30.07,29.96,13,5,20,0.00